Repülésmeteorológia

METAR


Utolsó módosítás időpontja: 2024-05-30 05:50:00
935
SAHU41 HASM 300600
METAR LHSM 300545Z AUTO 00000KT CAVOK 17/13 Q1008 NOSIG

TAF


Utolsó módosítás időpontja: 2024-05-30 05:25:00
934
FCHU99 LHSM 300500
TAF LHSM 300515Z 3006/3015 VRB03KT CAVOK
BECMG 3008/3010 19007KT SCT040
PROB40 TEMPO 3012/3015 VRB15G25KT 4000 SHRA TSRA SCT040CB
SCT060